sensor_id;sensor_type;location;lat;lon;timestamp;P1;durP1;ratioP1;P2;durP2;ratioP2
15706;SDS011;7953;54.302;10.128;2022-11-14T00:02:02;16.07;;;13.97;;
15706;SDS011;7953;54.302;10.128;2022-11-14T00:04:29;16.37;;;14.43;;
15706;SDS011;7953;54.302;10.128;2022-11-14T00:06:56;18.20;;;14.37;;
15706;SDS011;7953;54.302;10.128;2022-11-14T00:09:23;16.70;;;14.93;;
15706;SDS011;7953;54.302;10.128;2022-11-14T00:11:50;16.90;;;15.10;;
15706;SDS011;7953;54.302;10.128;2022-11-14T00:14:17;17.77;;;15.43;;
15706;SDS011;7953;54.302;10.128;2022-11-14T00:16:44;16.70;;;13.63;;
15706;SDS011;7953;54.302;10.128;2022-11-14T00:19:13;18.90;;;15.17;;
15706;SDS011;7953;54.302;10.128;2022-11-14T00:21:39;17.53;;;14.50;;
15706;SDS011;7953;54.302;10.128;2022-11-14T00:24:06;18.30;;;15.57;;
15706;SDS011;7953;54.302;10.128;2022-11-14T00:26:33;17.50;;;15.07;;
15706;SDS011;7953;54.302;10.128;2022-11-14T00:29:00;19.13;;;15.30;;
15706;SDS011;7953;54.302;10.128;2022-11-14T00:31:27;18.37;;;15.37;;
15706;SDS011;7953;54.302;10.128;2022-11-14T00:33:54;17.10;;;14.67;;
15706;SDS011;7953;54.302;10.128;2022-11-14T00:36:22;17.80;;;15.17;;
15706;SDS011;7953;54.302;10.128;2022-11-14T00:38:51;19.27;;;16.10;;
15706;SDS011;7953;54.302;10.128;2022-11-14T00:41:18;17.07;;;14.40;;
15706;SDS011;7953;54.302;10.128;2022-11-14T00:43:45;20.00;;;15.50;;
15706;SDS011;7953;54.302;10.128;2022-11-14T00:46:12;20.83;;;15.20;;
15706;SDS011;7953;54.302;10.128;2022-11-14T00:48:39;17.53;;;15.43;;
15706;SDS011;7953;54.302;10.128;2022-11-14T00:51:06;19.93;;;15.00;;
15706;SDS011;7953;54.302;10.128;2022-11-14T00:53:34;19.57;;;15.10;;
15706;SDS011;7953;54.302;10.128;2022-11-14T00:56:01;17.33;;;14.70;;
15706;SDS011;7953;54.302;10.128;2022-11-14T00:58:29;16.43;;;14.13;;
15706;SDS011;7953;54.302;10.128;2022-11-14T01:00:56;16.73;;;14.63;;
15706;SDS011;7953;54.302;10.128;2022-11-14T01:03:23;17.67;;;15.13;;
15706;SDS011;7953;54.302;10.128;2022-11-14T01:05:49;18.17;;;15.40;;
15706;SDS011;7953;54.302;10.128;2022-11-14T01:08:17;19.03;;;15.33;;
15706;SDS011;7953;54.302;10.128;2022-11-14T01:10:46;18.47;;;15.53;;
15706;SDS011;7953;54.302;10.128;2022-11-14T01:13:17;19.37;;;15.70;;
15706;SDS011;7953;54.302;10.128;2022-11-14T01:15:44;19.60;;;16.33;;
15706;SDS011;7953;54.302;10.128;2022-11-14T01:18:13;21.00;;;15.77;;
15706;SDS011;7953;54.302;10.128;2022-11-14T01:20:42;18.70;;;16.07;;
15706;SDS011;7953;54.302;10.128;2022-11-14T01:23:10;22.03;;;16.13;;
15706;SDS011;7953;54.302;10.128;2022-11-14T01:25:39;20.20;;;16.07;;
15706;SDS011;7953;54.302;10.128;2022-11-14T01:28:09;21.13;;;16.63;;
15706;SDS011;7953;54.302;10.128;2022-11-14T01:30:37;20.43;;;16.43;;
15706;SDS011;7953;54.302;10.128;2022-11-14T01:33:04;18.00;;;15.83;;
15706;SDS011;7953;54.302;10.128;2022-11-14T01:35:32;19.03;;;16.37;;
15706;SDS011;7953;54.302;10.128;2022-11-14T01:38:00;22.53;;;17.50;;
15706;SDS011;7953;54.302;10.128;2022-11-14T01:40:27;21.03;;;16.80;;
15706;SDS011;7953;54.302;10.128;2022-11-14T01:46:00;23.77;;;17.03;;
15706;SDS011;7953;54.302;10.128;2022-11-14T01:48:30;21.00;;;15.80;;
15706;SDS011;7953;54.302;10.128;2022-11-14T01:51:01;20.67;;;16.90;;
15706;SDS011;7953;54.302;10.128;2022-11-14T01:53:30;20.93;;;16.37;;
15706;SDS011;7953;54.302;10.128;2022-11-14T01:55:58;23.13;;;17.27;;
15706;SDS011;7953;54.302;10.128;2022-11-14T01:58:29;22.50;;;17.97;;
15706;SDS011;7953;54.302;10.128;2022-11-14T02:00:57;21.73;;;17.50;;
15706;SDS011;7953;54.302;10.128;2022-11-14T02:03:25;24.37;;;17.83;;
15706;SDS011;7953;54.302;10.128;2022-11-14T02:05:53;24.70;;;19.07;;
15706;SDS011;7953;54.302;10.128;2022-11-14T02:08:20;23.80;;;18.17;;
15706;SDS011;7953;54.302;10.128;2022-11-14T02:10:48;24.43;;;18.20;;
15706;SDS011;7953;54.302;10.128;2022-11-14T02:13:15;27.47;;;19.97;;
15706;SDS011;7953;54.302;10.128;2022-11-14T02:15:42;29.70;;;20.37;;
15706;SDS011;7953;54.302;10.128;2022-11-14T02:18:09;29.17;;;20.47;;
15706;SDS011;7953;54.302;10.128;2022-11-14T02:20:38;23.77;;;18.17;;
15706;SDS011;7953;54.302;10.128;2022-11-14T02:23:07;31.73;;;21.33;;
15706;SDS011;7953;54.302;10.128;2022-11-14T02:25:35;28.43;;;20.50;;
15706;SDS011;7953;54.302;10.128;2022-11-14T02:28:03;28.43;;;20.90;;
15706;SDS011;7953;54.302;10.128;2022-11-14T02:30:32;24.77;;;19.10;;
15706;SDS011;7953;54.302;10.128;2022-11-14T02:32:59;30.33;;;20.40;;
15706;SDS011;7953;54.302;10.128;2022-11-14T02:35:26;25.83;;;19.53;;
15706;SDS011;7953;54.302;10.128;2022-11-14T02:37:54;29.43;;;20.27;;
15706;SDS011;7953;54.302;10.128;2022-11-14T02:40:21;30.27;;;21.23;;
15706;SDS011;7953;54.302;10.128;2022-11-14T02:42:48;26.43;;;19.87;;
15706;SDS011;7953;54.302;10.128;2022-11-14T02:45:15;29.03;;;19.10;;
15706;SDS011;7953;54.302;10.128;2022-11-14T02:47:42;24.93;;;18.73;;
15706;SDS011;7953;54.302;10.128;2022-11-14T02:50:09;26.53;;;19.97;;
15706;SDS011;7953;54.302;10.128;2022-11-14T02:52:36;28.20;;;20.20;;
15706;SDS011;7953;54.302;10.128;2022-11-14T02:55:04;26.60;;;19.17;;
15706;SDS011;7953;54.302;10.128;2022-11-14T02:57:31;26.37;;;20.00;;
15706;SDS011;7953;54.302;10.128;2022-11-14T02:59:58;26.97;;;19.73;;
15706;SDS011;7953;54.302;10.128;2022-11-14T03:02:25;27.00;;;19.07;;
15706;SDS011;7953;54.302;10.128;2022-11-14T03:04:57;29.80;;;19.30;;
15706;SDS011;7953;54.302;10.128;2022-11-14T03:07:24;28.87;;;20.60;;
15706;SDS011;7953;54.302;10.128;2022-11-14T03:09:51;24.33;;;18.50;;
15706;SDS011;7953;54.302;10.128;2022-11-14T03:12:19;27.40;;;19.47;;
15706;SDS011;7953;54.302;10.128;2022-11-14T03:14:47;24.23;;;18.03;;
15706;SDS011;7953;54.302;10.128;2022-11-14T03:17:16;28.20;;;20.07;;
15706;SDS011;7953;54.302;10.128;2022-11-14T03:19:43;27.00;;;18.97;;
15706;SDS011;7953;54.302;10.128;2022-11-14T03:22:09;27.27;;;19.67;;
15706;SDS011;7953;54.302;10.128;2022-11-14T03:24:36;26.23;;;18.27;;
15706;SDS011;7953;54.302;10.128;2022-11-14T03:27:03;25.63;;;18.53;;
15706;SDS011;7953;54.302;10.128;2022-11-14T03:29:31;27.43;;;19.47;;
15706;SDS011;7953;54.302;10.128;2022-11-14T03:31:58;27.07;;;19.50;;
15706;SDS011;7953;54.302;10.128;2022-11-14T03:34:25;25.10;;;18.93;;
15706;SDS011;7953;54.302;10.128;2022-11-14T03:36:52;25.40;;;19.03;;
15706;SDS011;7953;54.302;10.128;2022-11-14T03:39:19;24.57;;;19.73;;
15706;SDS011;7953;54.302;10.128;2022-11-14T03:41:48;28.13;;;20.67;;
15706;SDS011;7953;54.302;10.128;2022-11-14T03:44:15;27.60;;;19.90;;
15706;SDS011;7953;54.302;10.128;2022-11-14T03:46:43;28.57;;;19.63;;
15706;SDS011;7953;54.302;10.128;2022-11-14T03:49:10;27.77;;;21.07;;
15706;SDS011;7953;54.302;10.128;2022-11-14T03:51:46;27.73;;;19.20;;
15706;SDS011;7953;54.302;10.128;2022-11-14T03:54:29;27.40;;;19.53;;
15706;SDS011;7953;54.302;10.128;2022-11-14T03:57:17;29.40;;;20.37;;
15706;SDS011;7953;54.302;10.128;2022-11-14T03:59:54;24.73;;;19.03;;
15706;SDS011;7953;54.302;10.128;2022-11-14T04:02:22;31.33;;;20.33;;
15706;SDS011;7953;54.302;10.128;2022-11-14T04:04:49;27.30;;;19.93;;
15706;SDS011;7953;54.302;10.128;2022-11-14T04:07:16;26.43;;;20.53;;
15706;SDS011;7953;54.302;10.128;2022-11-14T04:09:43;28.10;;;19.13;;
15706;SDS011;7953;54.302;10.128;2022-11-14T04:12:11;26.30;;;18.80;;
15706;SDS011;7953;54.302;10.128;2022-11-14T04:14:38;28.13;;;19.93;;
15706;SDS011;7953;54.302;10.128;2022-11-14T04:17:05;28.67;;;20.93;;
15706;SDS011;7953;54.302;10.128;2022-11-14T04:19:33;30.37;;;21.57;;
15706;SDS011;7953;54.302;10.128;2022-11-14T04:22:00;29.77;;;20.80;;
15706;SDS011;7953;54.302;10.128;2022-11-14T04:24:27;27.97;;;19.87;;
15706;SDS011;7953;54.302;10.128;2022-11-14T04:26:54;31.23;;;20.80;;
15706;SDS011;7953;54.302;10.128;2022-11-14T04:29:20;28.27;;;21.03;;
15706;SDS011;7953;54.302;10.128;2022-11-14T04:31:48;28.83;;;20.03;;
15706;SDS011;7953;54.302;10.128;2022-11-14T04:34:14;31.27;;;20.17;;
15706;SDS011;7953;54.302;10.128;2022-11-14T04:36:43;28.37;;;20.13;;
15706;SDS011;7953;54.302;10.128;2022-11-14T04:39:10;26.70;;;20.33;;
15706;SDS011;7953;54.302;10.128;2022-11-14T04:41:37;26.43;;;19.87;;
15706;SDS011;7953;54.302;10.128;2022-11-14T04:44:03;27.20;;;19.73;;
15706;SDS011;7953;54.302;10.128;2022-11-14T04:46:30;24.37;;;19.40;;
15706;SDS011;7953;54.302;10.128;2022-11-14T04:48:57;28.40;;;20.50;;
15706;SDS011;7953;54.302;10.128;2022-11-14T04:51:24;29.67;;;20.67;;
15706;SDS011;7953;54.302;10.128;2022-11-14T04:53:52;28.73;;;19.97;;
15706;SDS011;7953;54.302;10.128;2022-11-14T04:56:19;27.53;;;20.60;;
15706;SDS011;7953;54.302;10.128;2022-11-14T04:58:47;27.13;;;20.37;;
15706;SDS011;7953;54.302;10.128;2022-11-14T05:01:14;25.83;;;19.17;;
15706;SDS011;7953;54.302;10.128;2022-11-14T05:03:41;28.03;;;19.80;;
15706;SDS011;7953;54.302;10.128;2022-11-14T05:06:08;24.73;;;19.57;;
15706;SDS011;7953;54.302;10.128;2022-11-14T05:08:35;26.87;;;19.87;;
15706;SDS011;7953;54.302;10.128;2022-11-14T05:11:03;29.23;;;20.50;;
15706;SDS011;7953;54.302;10.128;2022-11-14T05:13:30;28.70;;;21.07;;
15706;SDS011;7953;54.302;10.128;2022-11-14T05:15:57;28.27;;;19.53;;
15706;SDS011;7953;54.302;10.128;2022-11-14T05:18:24;24.20;;;19.03;;
15706;SDS011;7953;54.302;10.128;2022-11-14T05:20:51;29.73;;;20.40;;
15706;SDS011;7953;54.302;10.128;2022-11-14T05:23:19;26.50;;;19.83;;
15706;SDS011;7953;54.302;10.128;2022-11-14T05:25:56;24.13;;;19.43;;
15706;SDS011;7953;54.302;10.128;2022-11-14T05:28:25;27.77;;;20.57;;
15706;SDS011;7953;54.302;10.128;2022-11-14T05:30:58;26.60;;;19.90;;
15706;SDS011;7953;54.302;10.128;2022-11-14T05:33:26;28.33;;;20.43;;
15706;SDS011;7953;54.302;10.128;2022-11-14T05:35:53;27.27;;;20.30;;
15706;SDS011;7953;54.302;10.128;2022-11-14T05:38:19;28.13;;;21.03;;
15706;SDS011;7953;54.302;10.128;2022-11-14T05:40:46;24.80;;;19.00;;
15706;SDS011;7953;54.302;10.128;2022-11-14T05:43:13;29.43;;;19.43;;
15706;SDS011;7953;54.302;10.128;2022-11-14T05:45:41;25.27;;;18.50;;
15706;SDS011;7953;54.302;10.128;2022-11-14T05:48:08;23.77;;;19.40;;
15706;SDS011;7953;54.302;10.128;2022-11-14T05:50:35;25.90;;;19.03;;
15706;SDS011;7953;54.302;10.128;2022-11-14T05:53:02;25.07;;;18.20;;
15706;SDS011;7953;54.302;10.128;2022-11-14T05:55:29;25.97;;;19.80;;
15706;SDS011;7953;54.302;10.128;2022-11-14T05:57:56;27.30;;;19.93;;
15706;SDS011;7953;54.302;10.128;2022-11-14T06:00:23;26.53;;;19.57;;
15706;SDS011;7953;54.302;10.128;2022-11-14T06:02:52;28.37;;;20.03;;
15706;SDS011;7953;54.302;10.128;2022-11-14T06:05:20;24.37;;;18.97;;
15706;SDS011;7953;54.302;10.128;2022-11-14T06:07:47;26.10;;;18.10;;
15706;SDS011;7953;54.302;10.128;2022-11-14T06:10:20;26.30;;;18.97;;
15706;SDS011;7953;54.302;10.128;2022-11-14T06:12:47;28.23;;;19.77;;
15706;SDS011;7953;54.302;10.128;2022-11-14T06:15:14;25.37;;;19.00;;
15706;SDS011;7953;54.302;10.128;2022-11-14T06:17:41;26.33;;;19.27;;
15706;SDS011;7953;54.302;10.128;2022-11-14T06:20:10;27.87;;;20.00;;
15706;SDS011;7953;54.302;10.128;2022-11-14T06:22:38;25.07;;;18.93;;
15706;SDS011;7953;54.302;10.128;2022-11-14T06:25:05;25.00;;;19.47;;
15706;SDS011;7953;54.302;10.128;2022-11-14T06:27:32;29.87;;;19.87;;
15706;SDS011;7953;54.302;10.128;2022-11-14T06:29:59;27.97;;;19.53;;
15706;SDS011;7953;54.302;10.128;2022-11-14T06:32:26;26.97;;;18.77;;
15706;SDS011;7953;54.302;10.128;2022-11-14T06:34:53;30.50;;;19.70;;
15706;SDS011;7953;54.302;10.128;2022-11-14T06:37:21;29.13;;;19.87;;
15706;SDS011;7953;54.302;10.128;2022-11-14T06:39:48;26.43;;;19.13;;
15706;SDS011;7953;54.302;10.128;2022-11-14T06:42:15;26.87;;;18.87;;
15706;SDS011;7953;54.302;10.128;2022-11-14T06:44:42;25.50;;;19.20;;
15706;SDS011;7953;54.302;10.128;2022-11-14T06:47:09;23.80;;;17.47;;
15706;SDS011;7953;54.302;10.128;2022-11-14T06:49:35;26.77;;;18.50;;
15706;SDS011;7953;54.302;10.128;2022-11-14T06:52:02;26.00;;;19.77;;
15706;SDS011;7953;54.302;10.128;2022-11-14T06:54:31;27.27;;;20.10;;
15706;SDS011;7953;54.302;10.128;2022-11-14T06:56:58;23.90;;;18.20;;
15706;SDS011;7953;54.302;10.128;2022-11-14T06:59:24;29.43;;;19.17;;
15706;SDS011;7953;54.302;10.128;2022-11-14T07:01:51;26.37;;;19.80;;
15706;SDS011;7953;54.302;10.128;2022-11-14T07:04:18;31.23;;;21.07;;
15706;SDS011;7953;54.302;10.128;2022-11-14T07:06:45;26.33;;;19.23;;
15706;SDS011;7953;54.302;10.128;2022-11-14T07:09:12;27.53;;;20.03;;
15706;SDS011;7953;54.302;10.128;2022-11-14T07:11:40;28.80;;;20.47;;
15706;SDS011;7953;54.302;10.128;2022-11-14T07:14:10;23.80;;;18.50;;
15706;SDS011;7953;54.302;10.128;2022-11-14T07:16:37;28.27;;;20.27;;
15706;SDS011;7953;54.302;10.128;2022-11-14T07:19:04;30.00;;;20.43;;
15706;SDS011;7953;54.302;10.128;2022-11-14T07:21:33;26.60;;;20.13;;
15706;SDS011;7953;54.302;10.128;2022-11-14T07:24:00;26.37;;;20.07;;
15706;SDS011;7953;54.302;10.128;2022-11-14T07:26:28;23.53;;;18.57;;
15706;SDS011;7953;54.302;10.128;2022-11-14T07:28:56;27.70;;;21.33;;
15706;SDS011;7953;54.302;10.128;2022-11-14T07:31:23;27.97;;;20.93;;
15706;SDS011;7953;54.302;10.128;2022-11-14T07:33:50;26.67;;;20.43;;
15706;SDS011;7953;54.302;10.128;2022-11-14T07:36:17;33.10;;;22.50;;
15706;SDS011;7953;54.302;10.128;2022-11-14T07:38:44;27.40;;;18.80;;
15706;SDS011;7953;54.302;10.128;2022-11-14T07:41:11;30.83;;;21.77;;
15706;SDS011;7953;54.302;10.128;2022-11-14T07:43:40;27.60;;;19.20;;
15706;SDS011;7953;54.302;10.128;2022-11-14T07:46:10;32.93;;;23.03;;
15706;SDS011;7953;54.302;10.128;2022-11-14T07:48:38;31.13;;;22.07;;
15706;SDS011;7953;54.302;10.128;2022-11-14T07:51:06;28.83;;;20.93;;
15706;SDS011;7953;54.302;10.128;2022-11-14T07:53:35;30.23;;;20.10;;
15706;SDS011;7953;54.302;10.128;2022-11-14T07:56:02;29.30;;;20.40;;
15706;SDS011;7953;54.302;10.128;2022-11-14T07:58:30;27.27;;;20.47;;
15706;SDS011;7953;54.302;10.128;2022-11-14T08:01:00;29.27;;;21.03;;
15706;SDS011;7953;54.302;10.128;2022-11-14T08:03:28;33.67;;;22.57;;
15706;SDS011;7953;54.302;10.128;2022-11-14T08:05:59;33.37;;;22.43;;
15706;SDS011;7953;54.302;10.128;2022-11-14T08:08:27;30.77;;;21.90;;
15706;SDS011;7953;54.302;10.128;2022-11-14T08:10:54;32.80;;;24.63;;
15706;SDS011;7953;54.302;10.128;2022-11-14T08:13:22;33.63;;;23.97;;
15706;SDS011;7953;54.302;10.128;2022-11-14T08:15:50;33.60;;;23.80;;
15706;SDS011;7953;54.302;10.128;2022-11-14T08:18:17;34.03;;;22.93;;
15706;SDS011;7953;54.302;10.128;2022-11-14T08:20:45;34.90;;;23.77;;
15706;SDS011;7953;54.302;10.128;2022-11-14T08:23:12;35.90;;;22.93;;
15706;SDS011;7953;54.302;10.128;2022-11-14T08:25:39;37.27;;;23.80;;
15706;SDS011;7953;54.302;10.128;2022-11-14T08:28:06;34.60;;;24.63;;
15706;SDS011;7953;54.302;10.128;2022-11-14T08:30:33;34.83;;;23.83;;
15706;SDS011;7953;54.302;10.128;2022-11-14T08:33:00;37.57;;;23.73;;
15706;SDS011;7953;54.302;10.128;2022-11-14T08:35:28;36.43;;;23.83;;
15706;SDS011;7953;54.302;10.128;2022-11-14T08:37:56;36.67;;;24.53;;
15706;SDS011;7953;54.302;10.128;2022-11-14T08:40:23;39.17;;;25.63;;
15706;SDS011;7953;54.302;10.128;2022-11-14T08:42:50;37.87;;;25.30;;
15706;SDS011;7953;54.302;10.128;2022-11-14T08:45:17;33.20;;;24.23;;
15706;SDS011;7953;54.302;10.128;2022-11-14T08:47:49;37.23;;;25.33;;
15706;SDS011;7953;54.302;10.128;2022-11-14T08:50:17;37.13;;;24.37;;
15706;SDS011;7953;54.302;10.128;2022-11-14T08:52:47;39.50;;;25.30;;
15706;SDS011;7953;54.302;10.128;2022-11-14T08:55:16;38.87;;;23.73;;
15706;SDS011;7953;54.302;10.128;2022-11-14T08:57:43;38.23;;;24.33;;
15706;SDS011;7953;54.302;10.128;2022-11-14T09:00:10;39.43;;;25.80;;
15706;SDS011;7953;54.302;10.128;2022-11-14T09:02:37;40.20;;;25.90;;
15706;SDS011;7953;54.302;10.128;2022-11-14T09:05:05;38.47;;;25.43;;
15706;SDS011;7953;54.302;10.128;2022-11-14T09:07:32;37.07;;;25.80;;
15706;SDS011;7953;54.302;10.128;2022-11-14T09:09:59;40.00;;;25.37;;
15706;SDS011;7953;54.302;10.128;2022-11-14T09:12:30;36.17;;;24.53;;
15706;SDS011;7953;54.302;10.128;2022-11-14T09:14:58;38.20;;;25.30;;
15706;SDS011;7953;54.302;10.128;2022-11-14T09:17:25;38.53;;;25.20;;
15706;SDS011;7953;54.302;10.128;2022-11-14T09:19:51;36.57;;;25.17;;
15706;SDS011;7953;54.302;10.128;2022-11-14T09:22:18;41.20;;;25.27;;
15706;SDS011;7953;54.302;10.128;2022-11-14T09:24:45;41.93;;;27.03;;
15706;SDS011;7953;54.302;10.128;2022-11-14T09:27:13;38.37;;;25.30;;
15706;SDS011;7953;54.302;10.128;2022-11-14T09:29:42;39.17;;;25.03;;
15706;SDS011;7953;54.302;10.128;2022-11-14T09:32:09;39.77;;;25.53;;
15706;SDS011;7953;54.302;10.128;2022-11-14T09:34:36;39.00;;;24.30;;
15706;SDS011;7953;54.302;10.128;2022-11-14T09:37:07;37.53;;;23.80;;
15706;SDS011;7953;54.302;10.128;2022-11-14T09:39:33;40.33;;;25.43;;
15706;SDS011;7953;54.302;10.128;2022-11-14T09:42:09;40.60;;;25.63;;
15706;SDS011;7953;54.302;10.128;2022-11-14T09:44:51;42.57;;;25.37;;
15706;SDS011;7953;54.302;10.128;2022-11-14T09:47:22;39.37;;;25.57;;
15706;SDS011;7953;54.302;10.128;2022-11-14T09:49:54;38.03;;;25.03;;
15706;SDS011;7953;54.302;10.128;2022-11-14T09:52:25;39.30;;;24.63;;
15706;SDS011;7953;54.302;10.128;2022-11-14T09:54:56;37.03;;;24.13;;
15706;SDS011;7953;54.302;10.128;2022-11-14T09:57:26;37.97;;;24.70;;
15706;SDS011;7953;54.302;10.128;2022-11-14T09:59:56;39.57;;;24.40;;
15706;SDS011;7953;54.302;10.128;2022-11-14T10:02:33;42.83;;;25.60;;
15706;SDS011;7953;54.302;10.128;2022-11-14T10:10:49;40.43;;;24.13;;
15706;SDS011;7953;54.302;10.128;2022-11-14T10:13:28;41.10;;;26.23;;
15706;SDS011;7953;54.302;10.128;2022-11-14T10:16:14;42.77;;;25.03;;
15706;SDS011;7953;54.302;10.128;2022-11-14T10:21:45;40.47;;;25.80;;
15706;SDS011;7953;54.302;10.128;2022-11-14T10:24:40;40.70;;;27.30;;
15706;SDS011;7953;54.302;10.128;2022-11-14T10:27:21;43.50;;;28.13;;
15706;SDS011;7953;54.302;10.128;2022-11-14T10:29:57;45.60;;;28.07;;
15706;SDS011;7953;54.302;10.128;2022-11-14T10:35:24;43.20;;;27.37;;
15706;SDS011;7953;54.302;10.128;2022-11-14T10:37:57;39.70;;;25.73;;
15706;SDS011;7953;54.302;10.128;2022-11-14T10:40:29;41.40;;;27.00;;
15706;SDS011;7953;54.302;10.128;2022-11-14T10:43:02;41.77;;;25.77;;
15706;SDS011;7953;54.302;10.128;2022-11-14T10:45:39;46.50;;;26.93;;
15706;SDS011;7953;54.302;10.128;2022-11-14T10:48:11;45.83;;;27.63;;
15706;SDS011;7953;54.302;10.128;2022-11-14T10:50:43;41.67;;;27.07;;
15706;SDS011;7953;54.302;10.128;2022-11-14T10:53:18;48.10;;;25.57;;
15706;SDS011;7953;54.302;10.128;2022-11-14T10:55:50;47.17;;;27.50;;
15706;SDS011;7953;54.302;10.128;2022-11-14T10:58:19;41.23;;;27.13;;
15706;SDS011;7953;54.302;10.128;2022-11-14T11:00:46;43.97;;;27.80;;
15706;SDS011;7953;54.302;10.128;2022-11-14T11:03:15;43.63;;;26.37;;
15706;SDS011;7953;54.302;10.128;2022-11-14T11:05:46;44.13;;;27.03;;
15706;SDS011;7953;54.302;10.128;2022-11-14T11:08:18;45.93;;;27.17;;
15706;SDS011;7953;54.302;10.128;2022-11-14T11:11:10;41.90;;;26.43;;
15706;SDS011;7953;54.302;10.128;2022-11-14T11:13:56;45.10;;;28.03;;
15706;SDS011;7953;54.302;10.128;2022-11-14T11:16:25;40.33;;;25.47;;
15706;SDS011;7953;54.302;10.128;2022-11-14T11:18:56;44.60;;;27.87;;
15706;SDS011;7953;54.302;10.128;2022-11-14T11:21:45;42.27;;;26.30;;
15706;SDS011;7953;54.302;10.128;2022-11-14T11:24:16;46.30;;;26.63;;
15706;SDS011;7953;54.302;10.128;2022-11-14T11:27:11;40.73;;;26.00;;
15706;SDS011;7953;54.302;10.128;2022-11-14T11:29:46;41.80;;;26.30;;
15706;SDS011;7953;54.302;10.128;2022-11-14T11:32:22;39.33;;;26.93;;
15706;SDS011;7953;54.302;10.128;2022-11-14T11:34:52;42.00;;;26.10;;
15706;SDS011;7953;54.302;10.128;2022-11-14T11:37:20;44.77;;;26.90;;
15706;SDS011;7953;54.302;10.128;2022-11-14T11:39:52;45.10;;;26.43;;
15706;SDS011;7953;54.302;10.128;2022-11-14T11:42:22;42.73;;;23.97;;
15706;SDS011;7953;54.302;10.128;2022-11-14T11:44:53;43.60;;;26.10;;
15706;SDS011;7953;54.302;10.128;2022-11-14T11:47:23;42.03;;;26.13;;
15706;SDS011;7953;54.302;10.128;2022-11-14T11:49:53;40.97;;;26.67;;
15706;SDS011;7953;54.302;10.128;2022-11-14T11:52:23;44.63;;;27.33;;
15706;SDS011;7953;54.302;10.128;2022-11-14T11:54:57;44.33;;;26.13;;
15706;SDS011;7953;54.302;10.128;2022-11-14T11:57:30;39.30;;;24.33;;
15706;SDS011;7953;54.302;10.128;2022-11-14T12:00:03;41.33;;;26.03;;
15706;SDS011;7953;54.302;10.128;2022-11-14T12:02:32;39.90;;;26.03;;
15706;SDS011;7953;54.302;10.128;2022-11-14T12:05:09;42.10;;;26.20;;
15706;SDS011;7953;54.302;10.128;2022-11-14T12:07:43;39.53;;;25.80;;
15706;SDS011;7953;54.302;10.128;2022-11-14T12:10:15;44.33;;;26.80;;
15706;SDS011;7953;54.302;10.128;2022-11-14T12:12:59;43.40;;;26.77;;
15706;SDS011;7953;54.302;10.128;2022-11-14T12:15:51;38.60;;;26.70;;
15706;SDS011;7953;54.302;10.128;2022-11-14T12:18:40;41.30;;;25.90;;
15706;SDS011;7953;54.302;10.128;2022-11-14T12:21:25;39.67;;;25.97;;
15706;SDS011;7953;54.302;10.128;2022-11-14T12:24:11;42.87;;;27.07;;
15706;SDS011;7953;54.302;10.128;2022-11-14T12:27:00;39.07;;;25.67;;
15706;SDS011;7953;54.302;10.128;2022-11-14T12:29:43;43.47;;;26.50;;
15706;SDS011;7953;54.302;10.128;2022-11-14T12:32:16;39.13;;;25.97;;
15706;SDS011;7953;54.302;10.128;2022-11-14T12:34:50;42.50;;;25.93;;
15706;SDS011;7953;54.302;10.128;2022-11-14T12:37:19;41.93;;;26.60;;
15706;SDS011;7953;54.302;10.128;2022-11-14T12:39:55;40.77;;;24.77;;
15706;SDS011;7953;54.302;10.128;2022-11-14T12:42:25;41.20;;;25.17;;
15706;SDS011;7953;54.302;10.128;2022-11-14T12:44:52;37.93;;;25.07;;
15706;SDS011;7953;54.302;10.128;2022-11-14T12:47:19;37.73;;;24.73;;
15706;SDS011;7953;54.302;10.128;2022-11-14T12:53:09;38.10;;;24.93;;
15706;SDS011;7953;54.302;10.128;2022-11-14T12:59:12;37.20;;;24.53;;
15706;SDS011;7953;54.302;10.128;2022-11-14T13:02:16;40.70;;;25.70;;
15706;SDS011;7953;54.302;10.128;2022-11-14T13:05:14;36.83;;;25.07;;
15706;SDS011;7953;54.302;10.128;2022-11-14T13:08:05;37.73;;;26.20;;
15706;SDS011;7953;54.302;10.128;2022-11-14T13:10:45;40.53;;;26.63;;
15706;SDS011;7953;54.302;10.128;2022-11-14T13:13:12;43.23;;;25.90;;
15706;SDS011;7953;54.302;10.128;2022-11-14T13:15:58;41.80;;;25.67;;
15706;SDS011;7953;54.302;10.128;2022-11-14T13:18:50;37.43;;;26.20;;
15706;SDS011;7953;54.302;10.128;2022-11-14T13:21:37;38.20;;;25.27;;
15706;SDS011;7953;54.302;10.128;2022-11-14T13:24:14;38.73;;;26.30;;
15706;SDS011;7953;54.302;10.128;2022-11-14T13:26:50;38.57;;;25.37;;
15706;SDS011;7953;54.302;10.128;2022-11-14T13:38:29;38.17;;;24.23;;
15706;SDS011;7953;54.302;10.128;2022-11-14T13:44:44;38.83;;;26.23;;
15706;SDS011;7953;54.302;10.128;2022-11-14T13:47:36;37.33;;;24.83;;
15706;SDS011;7953;54.302;10.128;2022-11-14T13:50:25;36.70;;;24.07;;
15706;SDS011;7953;54.302;10.128;2022-11-14T13:52:56;35.50;;;23.83;;
15706;SDS011;7953;54.302;10.128;2022-11-14T13:55:26;41.10;;;25.10;;
15706;SDS011;7953;54.302;10.128;2022-11-14T13:58:04;41.90;;;25.67;;
15706;SDS011;7953;54.302;10.128;2022-11-14T14:00:49;39.63;;;24.13;;
15706;SDS011;7953;54.302;10.128;2022-11-14T14:03:33;37.13;;;24.57;;
15706;SDS011;7953;54.302;10.128;2022-11-14T14:06:16;36.57;;;24.50;;
15706;SDS011;7953;54.302;10.128;2022-11-14T14:08:56;40.00;;;25.50;;
15706;SDS011;7953;54.302;10.128;2022-11-14T14:11:52;44.37;;;26.53;;
15706;SDS011;7953;54.302;10.128;2022-11-14T14:14:35;36.33;;;24.20;;
15706;SDS011;7953;54.302;10.128;2022-11-14T14:17:18;44.33;;;26.03;;
15706;SDS011;7953;54.302;10.128;2022-11-14T14:19:55;39.43;;;24.07;;
15706;SDS011;7953;54.302;10.128;2022-11-14T14:22:30;41.50;;;26.83;;
15706;SDS011;7953;54.302;10.128;2022-11-14T14:25:08;37.90;;;25.03;;
15706;SDS011;7953;54.302;10.128;2022-11-14T14:27:47;39.00;;;26.90;;
15706;SDS011;7953;54.302;10.128;2022-11-14T14:30:25;39.70;;;25.83;;
15706;SDS011;7953;54.302;10.128;2022-11-14T14:33:04;41.13;;;26.53;;
15706;SDS011;7953;54.302;10.128;2022-11-14T14:35:36;44.37;;;27.67;;
15706;SDS011;7953;54.302;10.128;2022-11-14T14:38:08;40.23;;;25.33;;
15706;SDS011;7953;54.302;10.128;2022-11-14T14:40:38;40.27;;;26.37;;
15706;SDS011;7953;54.302;10.128;2022-11-14T14:43:11;45.70;;;26.47;;
15706;SDS011;7953;54.302;10.128;2022-11-14T14:45:47;42.43;;;26.60;;
15706;SDS011;7953;54.302;10.128;2022-11-14T14:48:21;42.33;;;25.27;;
15706;SDS011;7953;54.302;10.128;2022-11-14T14:50:51;44.57;;;27.20;;
15706;SDS011;7953;54.302;10.128;2022-11-14T14:53:19;48.30;;;26.33;;
15706;SDS011;7953;54.302;10.128;2022-11-14T14:55:51;41.93;;;25.70;;
15706;SDS011;7953;54.302;10.128;2022-11-14T14:58:23;42.13;;;25.77;;
15706;SDS011;7953;54.302;10.128;2022-11-14T15:00:54;40.13;;;24.90;;
15706;SDS011;7953;54.302;10.128;2022-11-14T15:03:24;39.73;;;24.47;;
15706;SDS011;7953;54.302;10.128;2022-11-14T15:05:57;42.63;;;24.40;;
15706;SDS011;7953;54.302;10.128;2022-11-14T15:08:25;44.80;;;26.90;;
15706;SDS011;7953;54.302;10.128;2022-11-14T15:10:55;39.77;;;26.63;;
15706;SDS011;7953;54.302;10.128;2022-11-14T15:13:24;40.53;;;26.40;;
15706;SDS011;7953;54.302;10.128;2022-11-14T15:15:52;40.47;;;24.77;;